Time;durP1;ratioP1;P1;durP2;ratioP2;P2;SDS_P1;SDS_P2;PMS_P1;PMS_P2;Temp;Humidity;BMP_temperature;BMP_pressure;BME280_temperature;BME280_humidity;BME280_pressure;Samples;Min_cycle;Max_cycle;Signal;HPM_P1;HPM_P2
2023/04/17 00:01:49;;;;;;;11.30;6.88;;;;;;;;;;5081753;28;20041;-59
2023/04/17 00:04:16;;;;;;;13.95;6.70;;;;;;;;;;5082456;28;20043;-59
2023/04/17 00:06:43;;;;;;;10.93;5.93;;;;;;;;;;5079035;28;20033;-59
2023/04/17 00:09:09;;;;;;;9.82;6.40;;;;;;;;;;5079649;28;20653;-59
2023/04/17 00:11:35;;;;;;;10.60;6.38;;;;;;;;;;5078912;28;20071;-58
2023/04/17 00:14:01;;;;;;;7.82;6.07;;;;;;;;;;5079825;28;20036;-59
2023/04/17 00:16:27;;;;;;;9.60;6.68;;;;;;;;;;5082845;28;20040;-58
2023/04/17 00:18:54;;;;;;;9.38;6.65;;;;;;;;;;5081802;28;20051;-59
2023/04/17 00:21:20;;;;;;;9.18;7.05;;;;;;;;;;5082206;27;20065;-59
2023/04/17 00:23:46;;;;;;;10.85;6.82;;;;;;;;;;5086485;28;20040;-58
2023/04/17 00:26:12;;;;;;;12.32;6.88;;;;;;;;;;5083499;28;20044;-59
2023/04/17 00:28:38;;;;;;;11.23;7.28;;;;;;;;;;5084640;28;20041;-59
2023/04/17 00:31:04;;;;;;;9.73;6.00;;;;;;;;;;5083855;28;20122;-58
2023/04/17 00:33:34;;;;;;;10.95;8.05;;;;;;;;;;5082894;28;20040;-59
2023/04/17 00:36:00;;;;;;;9.70;6.30;;;;;;;;;;5080778;28;20085;-59
2023/04/17 00:38:26;;;;;;;11.70;6.65;;;;;;;;;;5083587;28;20054;-59
2023/04/17 00:40:52;;;;;;;10.90;6.93;;;;;;;;;;5084798;28;20051;-59
2023/04/17 00:43:18;;;;;;;10.63;6.85;;;;;;;;;;5084491;28;20517;-59
2023/04/17 00:45:47;;;;;;;8.98;7.25;;;;;;;;;;5083243;28;20089;-58
2023/04/17 00:48:13;;;;;;;9.82;7.30;;;;;;;;;;5080459;28;20131;-59
2023/04/17 00:50:40;;;;;;;12.90;6.78;;;;;;;;;;5083260;28;20044;-59
2023/04/17 00:53:06;;;;;;;9.63;6.47;;;;;;;;;;5086343;28;20043;-59
2023/04/17 00:55:34;;;;;;;13.00;7.05;;;;;;;;;;5083427;28;20541;-58
2023/04/17 00:58:00;;;;;;;15.95;7.38;;;;;;;;;;5084852;28;20044;-58
2023/04/17 01:00:26;;;;;;;9.80;6.85;;;;;;;;;;5084134;28;20045;-58
2023/04/17 01:02:53;;;;;;;16.02;7.07;;;;;;;;;;5084335;28;20110;-59
2023/04/17 01:05:19;;;;;;;10.07;6.57;;;;;;;;;;5084472;28;20091;-58
2023/04/17 01:07:45;;;;;;;13.45;8.45;;;;;;;;;;5067366;28;20715;-58
2023/04/17 01:10:11;;;;;;;9.80;6.82;;;;;;;;;;5078492;28;20039;-58
2023/04/17 01:12:37;;;;;;;9.02;6.10;;;;;;;;;;5082949;28;20048;-59
2023/04/17 01:15:04;;;;;;;11.05;7.53;;;;;;;;;;5083067;28;20058;-59
2023/04/17 01:17:30;;;;;;;12.68;6.75;;;;;;;;;;5081550;28;20036;-59
2023/04/17 01:19:56;;;;;;;10.82;7.22;;;;;;;;;;5083956;28;20040;-58
2023/04/17 01:22:23;;;;;;;11.48;7.50;;;;;;;;;;5081399;28;20028;-58
2023/04/17 01:24:49;;;;;;;8.82;6.38;;;;;;;;;;5083781;28;20165;-59
2023/04/17 01:27:15;;;;;;;9.43;6.13;;;;;;;;;;5079376;28;20044;-59
2023/04/17 01:29:42;;;;;;;13.43;7.15;;;;;;;;;;5081747;28;20040;-59
2023/04/17 01:32:08;;;;;;;9.80;7.10;;;;;;;;;;5079544;28;20127;-59
2023/04/17 01:34:35;;;;;;;10.68;6.32;;;;;;;;;;5082699;28;20075;-59
2023/04/17 01:37:01;;;;;;;13.00;6.50;;;;;;;;;;5067495;28;20055;-59
2023/04/17 01:39:27;;;;;;;10.10;6.10;;;;;;;;;;5082711;28;20070;-59
2023/04/17 01:41:53;;;;;;;11.77;8.07;;;;;;;;;;5078745;27;20060;-59
2023/04/17 01:44:20;;;;;;;10.50;5.95;;;;;;;;;;5068508;28;20076;-59
2023/04/17 01:46:46;;;;;;;8.70;5.95;;;;;;;;;;5082094;28;20071;-58
2023/04/17 01:49:13;;;;;;;12.68;6.72;;;;;;;;;;5079453;28;20129;-59
2023/04/17 01:51:39;;;;;;;10.02;6.65;;;;;;;;;;5078577;28;20084;-59
2023/04/17 01:54:05;;;;;;;14.35;7.05;;;;;;;;;;5081192;28;20769;-59
2023/04/17 01:56:31;;;;;;;9.38;6.70;;;;;;;;;;5081802;28;20119;-59
2023/04/17 01:58:57;;;;;;;12.45;7.15;;;;;;;;;;5083676;28;20079;-59
2023/04/17 02:01:23;;;;;;;11.55;7.40;;;;;;;;;;5083336;28;20119;-58
2023/04/17 02:03:49;;;;;;;10.00;7.10;;;;;;;;;;5084684;28;20052;-58
2023/04/17 02:06:15;;;;;;;12.95;7.65;;;;;;;;;;5082640;28;20041;-58
2023/04/17 02:08:42;;;;;;;10.23;7.13;;;;;;;;;;5084200;28;20989;-59
2023/04/17 02:11:09;;;;;;;12.57;5.93;;;;;;;;;;5083617;28;20068;-59
2023/04/17 02:13:35;;;;;;;9.93;7.35;;;;;;;;;;5096335;27;20599;-59
2023/04/17 02:16:01;;;;;;;13.68;8.18;;;;;;;;;;5081750;28;20052;-59
2023/04/17 02:18:27;;;;;;;8.95;6.63;;;;;;;;;;5083372;28;20037;-59
2023/04/17 02:20:53;;;;;;;12.68;7.30;;;;;;;;;;5079754;28;20575;-59
2023/04/17 02:23:20;;;;;;;14.98;8.10;;;;;;;;;;5082232;28;20036;-59
2023/04/17 02:25:46;;;;;;;13.55;7.78;;;;;;;;;;5079658;27;20051;-59
2023/04/17 02:28:12;;;;;;;12.65;8.35;;;;;;;;;;5065663;28;20147;-58
2023/04/17 02:30:38;;;;;;;13.60;7.70;;;;;;;;;;5081106;28;20727;-58
2023/04/17 02:33:04;;;;;;;13.18;7.47;;;;;;;;;;5083269;28;20094;-58
2023/04/17 02:35:31;;;;;;;13.07;7.95;;;;;;;;;;5080265;28;20040;-58
2023/04/17 02:37:57;;;;;;;12.73;7.70;;;;;;;;;;5080963;28;20498;-58
2023/04/17 02:40:23;;;;;;;11.52;8.70;;;;;;;;;;5082837;28;20129;-58
2023/04/17 02:42:49;;;;;;;13.32;7.78;;;;;;;;;;5078500;28;20060;-59
2023/04/17 02:45:15;;;;;;;12.93;7.60;;;;;;;;;;5082025;28;20048;-59
2023/04/17 02:47:41;;;;;;;16.27;8.18;;;;;;;;;;5082333;28;20150;-58
2023/04/17 02:50:08;;;;;;;11.45;7.63;;;;;;;;;;5083922;28;20097;-59
2023/04/17 02:52:34;;;;;;;11.88;8.45;;;;;;;;;;5081982;28;20665;-59
2023/04/17 02:55:00;;;;;;;16.00;8.05;;;;;;;;;;5082799;28;20051;-59
2023/04/17 02:57:26;;;;;;;12.48;7.85;;;;;;;;;;5081511;28;20032;-59
2023/04/17 02:59:52;;;;;;;12.77;8.07;;;;;;;;;;5084486;28;20118;-59
2023/04/17 03:02:22;;;;;;;15.60;8.30;;;;;;;;;;5083239;28;20039;-58
2023/04/17 03:04:49;;;;;;;9.65;6.55;;;;;;;;;;5084233;28;20075;-59
2023/04/17 03:07:18;;;;;;;13.65;7.28;;;;;;;;;;5084969;28;20523;-58
2023/04/17 03:09:48;;;;;;;12.93;8.20;;;;;;;;;;5082277;28;20044;-58
2023/04/17 03:12:14;;;;;;;11.15;8.13;;;;;;;;;;5078875;28;20044;-59
2023/04/17 03:14:41;;;;;;;12.85;7.35;;;;;;;;;;5082772;28;20049;-58
2023/04/17 03:17:07;;;;;;;12.93;8.20;;;;;;;;;;5081205;28;20044;-59
2023/04/17 03:19:34;;;;;;;13.55;8.15;;;;;;;;;;5082638;28;20055;-58
2023/04/17 03:22:03;;;;;;;12.40;6.65;;;;;;;;;;5082016;28;20547;-59
2023/04/17 03:24:30;;;;;;;16.73;7.47;;;;;;;;;;5084300;28;20051;-58
2023/04/17 03:26:56;;;;;;;10.15;7.60;;;;;;;;;;5081541;28;20048;-58
2023/04/17 03:29:22;;;;;;;12.23;8.00;;;;;;;;;;5082317;28;20064;-58
2023/04/17 03:31:48;;;;;;;12.98;8.95;;;;;;;;;;5067635;28;20040;-59
2023/04/17 03:34:14;;;;;;;13.32;7.60;;;;;;;;;;5065997;28;21231;-58
2023/04/17 03:36:40;;;;;;;19.42;7.43;;;;;;;;;;5082253;28;20035;-58
2023/04/17 03:39:06;;;;;;;11.63;7.88;;;;;;;;;;5080335;28;20413;-58
2023/04/17 03:41:33;;;;;;;15.85;8.70;;;;;;;;;;5080310;28;22214;-58
2023/04/17 03:43:59;;;;;;;15.88;7.88;;;;;;;;;;5080510;28;20040;-59
2023/04/17 03:46:25;;;;;;;13.50;7.15;;;;;;;;;;5079929;28;20137;-58
2023/04/17 03:48:51;;;;;;;8.52;6.82;;;;;;;;;;5066109;28;20040;-58
2023/04/17 03:51:17;;;;;;;15.68;7.95;;;;;;;;;;5068368;28;20155;-59
2023/04/17 03:53:43;;;;;;;14.88;8.35;;;;;;;;;;5084828;27;20159;-58
2023/04/17 03:56:09;;;;;;;14.25;7.55;;;;;;;;;;5069881;28;20158;-59
2023/04/17 03:58:35;;;;;;;17.48;7.43;;;;;;;;;;5085641;28;20052;-59
2023/04/17 04:01:01;;;;;;;12.02;7.22;;;;;;;;;;5083229;28;20040;-59
2023/04/17 04:03:28;;;;;;;12.65;7.15;;;;;;;;;;5069807;28;20056;-59
2023/04/17 04:05:54;;;;;;;11.13;7.20;;;;;;;;;;5068877;28;20532;-58
2023/04/17 04:08:20;;;;;;;13.38;7.28;;;;;;;;;;5085904;28;20052;-58
2023/04/17 04:10:46;;;;;;;13.55;7.35;;;;;;;;;;5084877;28;20037;-59
2023/04/17 04:13:13;;;;;;;12.77;7.05;;;;;;;;;;5083759;28;20049;-59
2023/04/17 04:15:39;;;;;;;11.88;6.57;;;;;;;;;;5086056;28;20045;-58
2023/04/17 04:18:05;;;;;;;11.13;7.60;;;;;;;;;;5083569;28;20043;-58
2023/04/17 04:20:31;;;;;;;10.95;6.78;;;;;;;;;;5069695;28;20064;-59
2023/04/17 04:22:58;;;;;;;9.32;5.80;;;;;;;;;;5083795;28;20048;-58
2023/04/17 04:25:24;;;;;;;10.90;6.35;;;;;;;;;;5085219;27;20510;-58
2023/04/17 04:27:50;;;;;;;11.90;6.47;;;;;;;;;;5082799;28;20043;-59
2023/04/17 04:30:17;;;;;;;11.10;7.35;;;;;;;;;;5085120;28;20174;-59
2023/04/17 04:32:44;;;;;;;13.55;7.25;;;;;;;;;;5084005;28;20044;-58
2023/04/17 04:35:10;;;;;;;13.40;7.05;;;;;;;;;;5069078;28;20166;-58
2023/04/17 04:37:36;;;;;;;11.18;7.03;;;;;;;;;;5082779;28;20041;-59
2023/04/17 04:40:24;;;;;;;11.52;6.97;;;;;;;;;;5083262;28;20044;-58
2023/04/17 04:42:50;;;;;;;14.13;6.90;;;;;;;;;;5082664;27;21169;-58
2023/04/17 04:45:16;;;;;;;11.02;6.38;;;;;;;;;;5080149;28;20037;-58
2023/04/17 04:47:42;;;;;;;15.50;8.18;;;;;;;;;;5080631;28;20041;-58
2023/04/17 04:50:08;;;;;;;13.45;6.95;;;;;;;;;;5079309;28;20062;-58
2023/04/17 04:52:35;;;;;;;9.93;6.38;;;;;;;;;;5080403;28;20059;-59
2023/04/17 04:55:01;;;;;;;10.50;6.72;;;;;;;;;;5080168;28;20036;-59
2023/04/17 04:57:27;;;;;;;11.18;6.45;;;;;;;;;;5080406;28;20064;-59
2023/04/17 04:59:53;;;;;;;10.63;6.20;;;;;;;;;;5083692;28;20122;-59
2023/04/17 05:02:19;;;;;;;11.48;6.43;;;;;;;;;;5080828;28;20051;-59
2023/04/17 05:04:46;;;;;;;12.43;7.10;;;;;;;;;;5083027;28;20040;-59
2023/04/17 05:07:12;;;;;;;10.00;6.20;;;;;;;;;;5083079;28;20051;-59
2023/04/17 05:09:38;;;;;;;11.75;6.80;;;;;;;;;;5082055;28;20055;-59
2023/04/17 05:12:04;;;;;;;9.63;5.75;;;;;;;;;;5083005;28;20048;-59
2023/04/17 05:14:30;;;;;;;11.23;7.68;;;;;;;;;;5082636;28;20045;-59
2023/04/17 05:16:56;;;;;;;12.63;5.95;;;;;;;;;;5083607;28;20075;-59
2023/04/17 05:19:22;;;;;;;11.75;7.22;;;;;;;;;;5085994;28;20090;-59
2023/04/17 05:21:49;;;;;;;11.10;6.30;;;;;;;;;;5084634;28;20653;-59
2023/04/17 05:24:15;;;;;;;12.98;6.60;;;;;;;;;;5083430;28;20040;-59
2023/04/17 05:26:41;;;;;;;8.82;5.95;;;;;;;;;;5079390;28;20114;-59
2023/04/17 05:29:07;;;;;;;12.68;7.18;;;;;;;;;;5079869;28;20040;-59
2023/04/17 05:31:33;;;;;;;14.60;6.50;;;;;;;;;;5085170;28;20051;-59
2023/04/17 05:34:00;;;;;;;11.32;6.22;;;;;;;;;;5068498;28;20040;-59
2023/04/17 05:36:26;;;;;;;10.13;6.50;;;;;;;;;;5080616;28;20041;-59
2023/04/17 05:38:52;;;;;;;12.27;6.43;;;;;;;;;;5084167;28;20044;-59
2023/04/17 05:41:18;;;;;;;9.50;7.43;;;;;;;;;;5078340;28;20103;-59
2023/04/17 05:43:44;;;;;;;10.40;5.05;;;;;;;;;;5066673;28;20135;-59
2023/04/17 05:46:10;;;;;;;12.10;6.35;;;;;;;;;;5082962;28;20101;-59
2023/04/17 05:48:37;;;;;;;10.38;6.80;;;;;;;;;;5081225;28;20040;-59
2023/04/17 05:51:03;;;;;;;13.65;7.53;;;;;;;;;;5081040;28;20083;-59
2023/04/17 05:53:30;;;;;;;11.00;7.75;;;;;;;;;;5083985;28;20051;-59
2023/04/17 05:55:56;;;;;;;8.90;5.70;;;;;;;;;;5080031;27;20039;-59
2023/04/17 05:58:22;;;;;;;8.85;5.85;;;;;;;;;;5081009;28;20036;-59
2023/04/17 06:00:48;;;;;;;9.50;4.93;;;;;;;;;;5080302;28;20190;-59
2023/04/17 06:03:15;;;;;;;11.68;6.55;;;;;;;;;;5084365;28;20044;-59
2023/04/17 06:05:41;;;;;;;13.80;8.27;;;;;;;;;;5083286;28;20046;-59
2023/04/17 06:08:07;;;;;;;11.88;7.07;;;;;;;;;;5082506;28;20045;-59
2023/04/17 06:10:33;;;;;;;10.80;7.93;;;;;;;;;;5083111;28;20141;-59
2023/04/17 06:13:00;;;;;;;9.80;6.68;;;;;;;;;;5079213;28;20052;-59
2023/04/17 06:15:26;;;;;;;12.50;7.15;;;;;;;;;;5081836;27;20036;-59
2023/04/17 06:17:52;;;;;;;11.63;6.32;;;;;;;;;;5083338;28;20035;-59
2023/04/17 06:20:18;;;;;;;13.98;6.57;;;;;;;;;;5083039;28;20044;-59
2023/04/17 06:22:45;;;;;;;16.40;5.95;;;;;;;;;;5081501;28;20502;-59
2023/04/17 06:25:12;;;;;;;9.70;6.22;;;;;;;;;;5083270;28;20037;-59
2023/04/17 06:27:38;;;;;;;43.65;8.75;;;;;;;;;;5083976;28;20040;-59
2023/04/17 06:30:05;;;;;;;9.38;6.28;;;;;;;;;;5078829;28;20052;-59
2023/04/17 06:32:31;;;;;;;11.40;5.65;;;;;;;;;;5075120;28;20549;-59
2023/04/17 06:34:57;;;;;;;10.95;6.28;;;;;;;;;;5082669;28;20044;-59
2023/04/17 06:37:23;;;;;;;8.15;5.18;;;;;;;;;;5084762;28;20107;-59
2023/04/17 06:39:49;;;;;;;10.65;6.20;;;;;;;;;;5085182;28;20044;-59
2023/04/17 06:42:15;;;;;;;12.18;6.30;;;;;;;;;;5082679;28;20040;-59
2023/04/17 06:44:42;;;;;;;12.77;5.68;;;;;;;;;;5085990;28;20088;-59
2023/04/17 06:47:08;;;;;;;9.07;5.32;;;;;;;;;;5084508;27;20115;-59
2023/04/17 06:49:34;;;;;;;8.98;5.60;;;;;;;;;;5085604;28;20044;-59
2023/04/17 06:52:00;;;;;;;14.07;6.00;;;;;;;;;;5086263;28;20037;-59
2023/04/17 06:54:26;;;;;;;13.88;5.97;;;;;;;;;;5085505;28;20166;-59
2023/04/17 06:56:52;;;;;;;9.45;5.25;;;;;;;;;;5086000;28;20573;-59
2023/04/17 06:59:19;;;;;;;12.82;5.75;;;;;;;;;;5085735;28;20036;-59
2023/04/17 07:01:45;;;;;;;14.98;7.22;;;;;;;;;;5084098;28;20040;-59
2023/04/17 07:04:11;;;;;;;12.18;7.50;;;;;;;;;;5085067;27;20090;-59
2023/04/17 07:06:38;;;;;;;12.57;6.63;;;;;;;;;;5085868;27;20036;-58
2023/04/17 07:09:05;;;;;;;11.20;6.60;;;;;;;;;;5086244;28;20092;-58
2023/04/17 07:11:31;;;;;;;17.60;7.47;;;;;;;;;;5086586;28;20078;-58
2023/04/17 07:13:57;;;;;;;14.50;7.68;;;;;;;;;;5085411;28;20090;-58
2023/04/17 07:16:23;;;;;;;16.83;8.20;;;;;;;;;;5085663;28;20044;-58
2023/04/17 07:18:50;;;;;;;17.17;8.45;;;;;;;;;;5085569;28;20032;-58
2023/04/17 07:21:16;;;;;;;17.23;7.60;;;;;;;;;;5084952;28;20067;-58
2023/04/17 07:23:42;;;;;;;15.90;6.85;;;;;;;;;;5085610;28;20186;-58
2023/04/17 07:26:10;;;;;;;13.40;8.10;;;;;;;;;;5085982;28;20119;-58
2023/04/17 07:28:36;;;;;;;11.48;7.43;;;;;;;;;;5085604;28;20051;-58
2023/04/17 07:31:06;;;;;;;19.08;8.63;;;;;;;;;;5084953;28;20584;-59
2023/04/17 07:33:32;;;;;;;13.93;7.97;;;;;;;;;;5085682;28;20040;-58
2023/04/17 07:35:58;;;;;;;12.38;7.65;;;;;;;;;;5084653;28;20136;-58
2023/04/17 07:38:25;;;;;;;11.85;7.10;;;;;;;;;;5085243;28;20079;-58
2023/04/17 07:40:51;;;;;;;14.77;8.23;;;;;;;;;;5084842;28;20115;-58
2023/04/17 07:43:17;;;;;;;14.82;8.00;;;;;;;;;;5084880;28;20102;-58
2023/04/17 07:45:44;;;;;;;17.38;8.75;;;;;;;;;;5085651;28;20051;-58
2023/04/17 07:48:10;;;;;;;16.70;9.05;;;;;;;;;;5084339;28;20159;-58
2023/04/17 07:50:36;;;;;;;18.17;9.07;;;;;;;;;;5085919;28;20048;-58
2023/04/17 07:53:02;;;;;;;14.23;7.90;;;;;;;;;;5084577;28;20032;-58
2023/04/17 07:55:28;;;;;;;14.77;8.65;;;;;;;;;;5085277;28;20048;-58
2023/04/17 07:57:54;;;;;;;14.63;9.27;;;;;;;;;;5084939;28;20040;-58
2023/04/17 08:00:20;;;;;;;15.02;7.78;;;;;;;;;;5086644;28;20032;-58
2023/04/17 08:02:47;;;;;;;17.00;9.93;;;;;;;;;;5085002;28;20508;-58
2023/04/17 08:05:13;;;;;;;18.25;10.05;;;;;;;;;;5084706;28;20332;-59
2023/04/17 08:07:40;;;;;;;15.43;8.90;;;;;;;;;;5086376;28;20782;-58
2023/04/17 08:10:06;;;;;;;17.65;9.75;;;;;;;;;;5084382;27;20643;-58
2023/04/17 08:12:32;;;;;;;18.63;10.93;;;;;;;;;;5085815;28;20052;-58
2023/04/17 08:14:58;;;;;;;14.80;9.27;;;;;;;;;;5083920;28;20040;-58
2023/04/17 08:17:24;;;;;;;19.35;9.13;;;;;;;;;;5085927;28;20135;-58
2023/04/17 08:19:56;;;;;;;17.23;9.20;;;;;;;;;;5084092;28;20584;-58
2023/04/17 08:22:23;;;;;;;14.50;9.85;;;;;;;;;;5084757;28;20052;-58
2023/04/17 08:24:53;;;;;;;16.88;8.90;;;;;;;;;;5084497;28;20040;-59
2023/04/17 08:27:19;;;;;;;17.10;10.15;;;;;;;;;;5084483;28;20040;-58
2023/04/17 08:29:45;;;;;;;14.80;9.82;;;;;;;;;;5083491;28;20048;-58
2023/04/17 08:32:11;;;;;;;15.15;9.40;;;;;;;;;;5084770;28;20122;-58
2023/04/17 08:34:37;;;;;;;15.07;8.38;;;;;;;;;;5085431;28;20055;-58
2023/04/17 08:37:04;;;;;;;14.18;8.70;;;;;;;;;;5087407;28;20040;-59
2023/04/17 08:39:30;;;;;;;17.70;10.48;;;;;;;;;;5085311;28;20081;-58
2023/04/17 08:41:59;;;;;;;17.20;9.10;;;;;;;;;;5088759;28;20048;-58
2023/04/17 08:44:26;;;;;;;16.42;9.98;;;;;;;;;;5087747;28;20047;-58
2023/04/17 08:46:52;;;;;;;15.80;10.18;;;;;;;;;;5088677;28;20040;-58
2023/04/17 08:49:18;;;;;;;17.70;9.05;;;;;;;;;;5087770;28;20041;-58
2023/04/17 08:51:46;;;;;;;17.15;9.63;;;;;;;;;;5089923;28;20044;-58
2023/04/17 08:54:12;;;;;;;20.08;12.30;;;;;;;;;;5087164;28;20043;-58
2023/04/17 08:56:38;;;;;;;18.15;9.73;;;;;;;;;;5088471;28;20040;-58
2023/04/17 08:59:04;;;;;;;16.13;10.55;;;;;;;;;;5087699;28;20041;-58
2023/04/17 09:01:32;;;;;;;14.73;8.27;;;;;;;;;;5086952;28;20757;-58
2023/04/17 09:03:58;;;;;;;17.45;10.98;;;;;;;;;;5088149;27;20036;-58
2023/04/17 09:06:24;;;;;;;20.23;10.32;;;;;;;;;;5087955;28;20079;-58
2023/04/17 09:08:58;;;;;;;20.67;11.25;;;;;;;;;;5087358;27;20539;-58
2023/04/17 09:11:25;;;;;;;20.58;11.52;;;;;;;;;;5086861;27;21738;-58
2023/04/17 09:13:51;;;;;;;22.08;8.48;;;;;;;;;;5088534;28;20044;-58
2023/04/17 09:16:20;;;;;;;18.00;9.43;;;;;;;;;;5087087;28;20102;-58
2023/04/17 09:18:46;;;;;;;16.48;12.07;;;;;;;;;;5087867;28;20040;-58
2023/04/17 09:21:19;;;;;;;18.75;10.40;;;;;;;;;;5086724;28;20056;-59
2023/04/17 09:23:45;;;;;;;36.58;19.35;;;;;;;;;;5087285;28;20127;-58
2023/04/17 09:26:15;;;;;;;26.85;13.40;;;;;;;;;;5085826;28;22043;-58
2023/04/17 09:28:59;;;;;;;16.17;9.55;;;;;;;;;;5071039;28;20217;-58
2023/04/17 09:31:26;;;;;;;16.77;10.20;;;;;;;;;;5085641;28;20090;-58
2023/04/17 09:33:56;;;;;;;17.90;10.48;;;;;;;;;;5087717;28;20044;-58
2023/04/17 09:36:22;;;;;;;21.75;11.73;;;;;;;;;;5087640;27;20051;-58
2023/04/17 09:38:49;;;;;;;23.98;12.38;;;;;;;;;;5086849;28;20166;-58
2023/04/17 09:41:25;;;;;;;26.90;17.48;;;;;;;;;;5086748;28;20044;-58
2023/04/17 09:43:53;;;;;;;21.90;13.27;;;;;;;;;;5086272;28;20040;-58
2023/04/17 09:46:34;;;;;;;19.90;11.90;;;;;;;;;;5085461;28;20455;-58
2023/04/17 09:49:01;;;;;;;18.85;11.77;;;;;;;;;;5086051;28;20060;-59
2023/04/17 09:51:27;;;;;;;19.77;11.65;;;;;;;;;;5087001;28;20598;-58
2023/04/17 09:53:55;;;;;;;22.55;11.90;;;;;;;;;;5085932;28;20040;-58
2023/04/17 09:56:23;;;;;;;22.40;11.65;;;;;;;;;;5087643;28;20045;-58
2023/04/17 09:58:50;;;;;;;23.38;12.68;;;;;;;;;;5086644;28;20037;-58
2023/04/17 10:01:16;;;;;;;21.50;13.02;;;;;;;;;;5086778;28;20498;-58
2023/04/17 10:03:42;;;;;;;18.65;11.63;;;;;;;;;;5087263;28;20090;-58
2023/04/17 10:06:09;;;;;;;18.35;11.35;;;;;;;;;;5085965;28;20084;-59
2023/04/17 10:08:35;;;;;;;21.73;11.85;;;;;;;;;;5086999;28;20049;-59
2023/04/17 10:11:07;;;;;;;17.73;11.93;;;;;;;;;;5087163;28;20083;-59
2023/04/17 10:13:34;;;;;;;17.83;9.35;;;;;;;;;;5086732;28;20387;-59
2023/04/17 10:16:01;;;;;;;19.35;13.02;;;;;;;;;;5085901;28;20563;-59
2023/04/17 10:18:27;;;;;;;20.02;12.70;;;;;;;;;;5086918;28;20044;-59
2023/04/17 10:20:54;;;;;;;15.98;9.55;;;;;;;;;;5087502;28;20048;-59
2023/04/17 10:23:34;;;;;;;21.80;13.13;;;;;;;;;;5087874;28;20048;-59
2023/04/17 10:26:19;;;;;;;16.45;9.80;;;;;;;;;;5085583;27;20051;-58
2023/04/17 10:28:49;;;;;;;20.50;11.65;;;;;;;;;;5087116;27;20098;-58
2023/04/17 10:31:15;;;;;;;17.35;11.60;;;;;;;;;;5086872;27;20044;-58
2023/04/17 10:33:48;;;;;;;20.98;11.50;;;;;;;;;;5086173;28;20094;-59
2023/04/17 10:36:33;;;;;;;21.88;11.20;;;;;;;;;;5086096;27;20072;-58
2023/04/17 10:39:16;;;;;;;18.10;11.25;;;;;;;;;;5085170;28;20131;-58
2023/04/17 10:42:01;;;;;;;21.85;12.80;;;;;;;;;;5086071;28;20044;-58
2023/04/17 10:44:27;;;;;;;20.60;11.90;;;;;;;;;;5086878;28;20047;-58
2023/04/17 10:46:53;;;;;;;24.15;13.18;;;;;;;;;;5085579;28;20080;-58
2023/04/17 10:49:21;;;;;;;16.42;10.52;;;;;;;;;;5099083;27;20131;-58
2023/04/17 10:51:47;;;;;;;20.48;12.70;;;;;;;;;;5085879;28;20032;-58
2023/04/17 10:54:14;;;;;;;19.40;12.07;;;;;;;;;;5085296;28;20040;-59
2023/04/17 10:56:47;;;;;;;23.17;12.82;;;;;;;;;;5085467;28;20047;-59
2023/04/17 10:59:17;;;;;;;20.70;12.90;;;;;;;;;;5084232;28;20770;-59
2023/04/17 11:01:49;;;;;;;21.48;11.88;;;;;;;;;;5084023;27;20081;-59
2023/04/17 11:04:20;;;;;;;18.52;11.85;;;;;;;;;;5084208;27;20468;-59
2023/04/17 11:06:46;;;;;;;20.38;12.13;;;;;;;;;;5084277;27;20045;-59
2023/04/17 11:09:12;;;;;;;22.27;12.20;;;;;;;;;;5085614;28;20173;-58
2023/04/17 11:11:43;;;;;;;20.67;12.35;;;;;;;;;;5085151;28;20068;-59
2023/04/17 11:14:09;;;;;;;19.27;10.85;;;;;;;;;;5084440;28;20036;-59
2023/04/17 11:16:40;;;;;;;16.92;11.18;;;;;;;;;;5085056;28;20104;-58
2023/04/17 11:19:08;;;;;;;26.02;13.93;;;;;;;;;;5086614;28;20067;-59
2023/04/17 11:21:38;;;;;;;19.92;12.98;;;;;;;;;;5085007;27;20857;-59
2023/04/17 11:24:04;;;;;;;21.10;10.70;;;;;;;;;;5084310;28;20096;-58
2023/04/17 11:26:30;;;;;;;16.17;9.55;;;;;;;;;;5085280;28;21363;-59
2023/04/17 11:28:58;;;;;;;21.95;12.57;;;;;;;;;;5084584;28;20197;-59
2023/04/17 11:31:25;;;;;;;19.20;13.43;;;;;;;;;;5085261;28;20078;-59
2023/04/17 11:33:51;;;;;;;22.35;13.88;;;;;;;;;;5085556;28;20823;-59
2023/04/17 11:36:17;;;;;;;19.52;11.25;;;;;;;;;;5085014;28;20040;-58
2023/04/17 11:38:49;;;;;;;16.17;8.80;;;;;;;;;;5085232;28;20133;-59
2023/04/17 11:41:16;;;;;;;19.35;11.40;;;;;;;;;;5085409;28;20036;-58
2023/04/17 11:43:43;;;;;;;20.00;12.13;;;;;;;;;;5085702;28;20081;-58
2023/04/17 11:46:09;;;;;;;20.50;11.27;;;;;;;;;;5085513;28;20052;-58
2023/04/17 11:48:35;;;;;;;20.52;12.80;;;;;;;;;;5085614;28;20032;-59
2023/04/17 11:51:05;;;;;;;14.63;10.15;;;;;;;;;;5085548;28;20574;-59
2023/04/17 11:53:34;;;;;;;19.05;11.27;;;;;;;;;;5085454;28;20095;-59
2023/04/17 11:56:14;;;;;;;21.08;13.43;;;;;;;;;;5084773;28;20037;-59
2023/04/17 11:58:50;;;;;;;19.75;12.30;;;;;;;;;;5084218;28;20538;-59
2023/04/17 12:01:16;;;;;;;19.05;11.50;;;;;;;;;;5085362;27;20043;-59
2023/04/17 12:03:43;;;;;;;20.35;14.50;;;;;;;;;;5084192;28;20067;-59
2023/04/17 12:06:10;;;;;;;20.58;12.27;;;;;;;;;;5085803;28;20067;-59
2023/04/17 12:08:44;;;;;;;20.75;12.60;;;;;;;;;;5084241;28;20048;-58
2023/04/17 12:11:24;;;;;;;34.83;13.45;;;;;;;;;;5087521;27;20040;-59
2023/04/17 12:13:54;;;;;;;20.52;10.68;;;;;;;;;;5086701;28;20096;-58
2023/04/17 12:16:21;;;;;;;22.95;14.77;;;;;;;;;;5087994;28;20044;-58
2023/04/17 12:18:47;;;;;;;23.92;11.77;;;;;;;;;;5088450;28;20044;-59
2023/04/17 12:21:14;;;;;;;22.58;14.13;;;;;;;;;;5088182;28;20048;-58
2023/04/17 12:23:40;;;;;;;23.05;14.10;;;;;;;;;;5088195;28;20103;-59
2023/04/17 12:26:06;;;;;;;19.65;11.80;;;;;;;;;;5087833;28;20040;-58
2023/04/17 12:28:33;;;;;;;25.48;13.75;;;;;;;;;;5087766;28;20488;-59
2023/04/17 12:30:59;;;;;;;26.08;13.93;;;;;;;;;;5087118;28;20524;-59
2023/04/17 12:33:25;;;;;;;22.90;13.57;;;;;;;;;;5088065;28;20494;-59
2023/04/17 12:35:51;;;;;;;18.35;10.45;;;;;;;;;;5087966;28;20048;-59
2023/04/17 12:38:17;;;;;;;22.13;14.25;;;;;;;;;;5087559;28;20044;-58
2023/04/17 12:40:44;;;;;;;21.25;12.38;;;;;;;;;;5087540;28;20074;-58
2023/04/17 12:43:10;;;;;;;23.38;12.80;;;;;;;;;;5087506;28;20506;-58
2023/04/17 12:45:37;;;;;;;24.50;13.48;;;;;;;;;;5087467;28;20135;-58
2023/04/17 12:48:04;;;;;;;18.60;9.90;;;;;;;;;;5086020;28;20045;-58
2023/04/17 12:50:30;;;;;;;20.45;12.13;;;;;;;;;;5089003;28;20041;-58
2023/04/17 12:52:56;;;;;;;14.73;9.77;;;;;;;;;;5087524;27;20102;-58
2023/04/17 12:55:25;;;;;;;15.68;10.18;;;;;;;;;;5070807;28;20045;-58
2023/04/17 12:57:51;;;;;;;17.77;12.80;;;;;;;;;;5088096;28;20099;-58
2023/04/17 13:00:17;;;;;;;20.67;12.00;;;;;;;;;;5088013;28;20044;-58
2023/04/17 13:02:43;;;;;;;19.20;10.30;;;;;;;;;;5088569;28;20174;-58
2023/04/17 13:05:09;;;;;;;24.88;13.15;;;;;;;;;;5085523;28;20152;-58
2023/04/17 13:07:35;;;;;;;22.63;12.20;;;;;;;;;;5071584;28;20040;-58
2023/04/17 13:10:01;;;;;;;19.30;11.10;;;;;;;;;;5086552;28;20090;-58
2023/04/17 13:12:27;;;;;;;26.00;14.20;;;;;;;;;;5088135;28;20119;-58
2023/04/17 13:14:56;;;;;;;20.83;13.00;;;;;;;;;;5086965;28;20134;-58
2023/04/17 13:17:22;;;;;;;24.23;12.27;;;;;;;;;;5087429;28;20051;-58
2023/04/17 13:19:48;;;;;;;21.95;12.00;;;;;;;;;;5071097;28;20131;-58
2023/04/17 13:22:16;;;;;;;21.20;12.07;;;;;;;;;;5087337;28;20051;-58
2023/04/17 13:24:42;;;;;;;19.40;11.10;;;;;;;;;;5087788;28;20040;-58
2023/04/17 13:27:08;;;;;;;17.25;11.18;;;;;;;;;;5086648;28;20048;-58
2023/04/17 13:29:35;;;;;;;17.42;9.95;;;;;;;;;;5087236;28;20531;-58
2023/04/17 13:32:01;;;;;;;17.98;11.23;;;;;;;;;;5071967;28;20469;-58
2023/04/17 13:34:27;;;;;;;13.60;9.40;;;;;;;;;;5087345;28;20052;-58
2023/04/17 13:36:56;;;;;;;17.35;11.10;;;;;;;;;;5087607;28;20048;-58
2023/04/17 13:39:23;;;;;;;18.95;9.52;;;;;;;;;;5086500;27;20102;-58
2023/04/17 13:41:49;;;;;;;12.60;8.43;;;;;;;;;;5088333;28;20941;-58
2023/04/17 13:44:16;;;;;;;15.05;10.50;;;;;;;;;;5085300;28;20048;-58
2023/04/17 13:46:42;;;;;;;16.77;9.93;;;;;;;;;;5087924;28;20070;-58
2023/04/17 13:49:09;;;;;;;17.38;11.23;;;;;;;;;;5086794;28;20044;-58
2023/04/17 13:51:35;;;;;;;17.42;9.55;;;;;;;;;;5086893;28;20040;-58
2023/04/17 13:54:01;;;;;;;25.83;11.13;;;;;;;;;;5085451;28;20056;-58
2023/04/17 13:56:27;;;;;;;18.88;11.63;;;;;;;;;;5087750;28;20036;-59
2023/04/17 13:58:54;;;;;;;16.52;10.05;;;;;;;;;;5086238;28;20587;-58
2023/04/17 14:01:20;;;;;;;17.20;11.45;;;;;;;;;;5086195;27;20046;-58
2023/04/17 14:03:46;;;;;;;22.98;12.80;;;;;;;;;;5087002;28;20130;-58
2023/04/17 14:06:12;;;;;;;21.90;11.38;;;;;;;;;;5086258;28;20530;-58
2023/04/17 14:08:38;;;;;;;16.02;9.40;;;;;;;;;;5086759;28;20041;-58
2023/04/17 14:11:05;;;;;;;20.35;10.05;;;;;;;;;;5087169;28;20105;-58
2023/04/17 14:13:31;;;;;;;20.60;8.50;;;;;;;;;;5070148;28;20584;-58
2023/04/17 14:15:57;;;;;;;16.83;10.90;;;;;;;;;;5085745;28;20223;-58
2023/04/17 14:18:23;;;;;;;15.65;10.27;;;;;;;;;;5087000;28;20700;-58
2023/04/17 14:20:52;;;;;;;15.82;9.32;;;;;;;;;;5086578;28;20531;-58
2023/04/17 14:23:18;;;;;;;15.55;8.85;;;;;;;;;;5087244;27;20048;-59
2023/04/17 14:25:44;;;;;;;19.02;11.75;;;;;;;;;;5084054;28;20044;-59